Time;durP1;ratioP1;P1;durP2;ratioP2;P2;SDS_P1;SDS_P2;PMS_P1;PMS_P2;Temp;Humidity;BMP_temperature;BMP_pressure;BME280_temperature;BME280_humidity;BME280_pressure;Samples;Min_cycle;Max_cycle;Signal;HPM_P1;HPM_P2
2024/01/07 00:01:38;;;;;;;17.02;11.43;;;;;;;;;;4977637;28;20129;-65
2024/01/07 00:04:04;;;;;;;20.58;13.02;;;;;;;;;;4971369;28;20397;-65
2024/01/07 00:06:30;;;;;;;20.35;12.35;;;;;;;;;;4983816;28;20046;-65
2024/01/07 00:08:56;;;;;;;19.10;11.90;;;;;;;;;;4991172;28;20413;-65
2024/01/07 00:11:23;;;;;;;19.02;12.05;;;;;;;;;;4973763;28;20396;-65
2024/01/07 00:13:49;;;;;;;18.83;12.23;;;;;;;;;;4975237;28;20049;-65
2024/01/07 00:16:15;;;;;;;18.58;11.98;;;;;;;;;;4988140;28;20050;-65
2024/01/07 00:18:41;;;;;;;18.30;11.68;;;;;;;;;;4958157;28;20043;-65
2024/01/07 00:21:07;;;;;;;16.60;11.70;;;;;;;;;;4946765;28;20477;-65
2024/01/07 00:23:33;;;;;;;17.95;12.15;;;;;;;;;;4989986;28;20044;-65
2024/01/07 00:25:59;;;;;;;19.00;12.13;;;;;;;;;;4987239;28;20393;-65
2024/01/07 00:28:25;;;;;;;24.05;12.00;;;;;;;;;;4986979;28;20035;-65
2024/01/07 00:30:51;;;;;;;18.83;12.18;;;;;;;;;;4973699;28;20046;-65
2024/01/07 00:33:17;;;;;;;21.60;12.40;;;;;;;;;;4972190;28;20066;-65
2024/01/07 00:35:43;;;;;;;18.90;11.43;;;;;;;;;;4975906;28;20049;-65
2024/01/07 00:38:09;;;;;;;18.00;11.45;;;;;;;;;;4972452;28;20113;-65
2024/01/07 00:40:35;;;;;;;16.77;12.43;;;;;;;;;;4970939;28;20118;-65
2024/01/07 00:43:01;;;;;;;20.60;12.63;;;;;;;;;;4986105;28;20046;-65
2024/01/07 00:45:27;;;;;;;19.85;12.57;;;;;;;;;;4987520;28;20422;-65
2024/01/07 00:47:54;;;;;;;18.67;11.10;;;;;;;;;;4981124;28;20031;-65
2024/01/07 00:50:20;;;;;;;19.13;11.10;;;;;;;;;;4970773;28;20047;-65
2024/01/07 00:52:46;;;;;;;19.63;12.88;;;;;;;;;;4984733;28;20038;-65
2024/01/07 00:55:12;;;;;;;20.15;12.45;;;;;;;;;;4973278;28;20050;-65
2024/01/07 00:57:38;;;;;;;20.63;12.68;;;;;;;;;;4970033;28;20434;-65
2024/01/07 01:00:08;;;;;;;22.52;12.93;;;;;;;;;;4970475;28;20110;-65
2024/01/07 01:02:35;;;;;;;17.90;11.98;;;;;;;;;;4970751;28;20051;-65
2024/01/07 01:05:02;;;;;;;20.95;13.60;;;;;;;;;;4969708;28;20211;-65
2024/01/07 01:07:28;;;;;;;20.00;13.18;;;;;;;;;;4970206;28;20077;-65
2024/01/07 01:09:54;;;;;;;19.52;13.35;;;;;;;;;;4970366;28;20051;-65
2024/01/07 01:12:20;;;;;;;18.13;11.98;;;;;;;;;;4969477;28;20045;-65
2024/01/07 01:14:46;;;;;;;18.42;12.52;;;;;;;;;;4982330;28;20503;-65
2024/01/07 01:17:12;;;;;;;21.05;13.30;;;;;;;;;;4989488;28;20112;-65
2024/01/07 01:19:37;;;;;;;21.70;12.95;;;;;;;;;;4969758;28;20041;-65
2024/01/07 01:22:04;;;;;;;20.90;13.35;;;;;;;;;;4981126;28;20405;-65
2024/01/07 01:24:30;;;;;;;20.02;12.73;;;;;;;;;;4969627;28;20137;-65
2024/01/07 01:26:56;;;;;;;18.67;12.98;;;;;;;;;;4970855;28;20411;-65
2024/01/07 01:29:21;;;;;;;21.17;12.90;;;;;;;;;;4969757;28;20367;-65
2024/01/07 01:31:48;;;;;;;19.48;12.70;;;;;;;;;;4970342;28;20493;-65
2024/01/07 01:34:14;;;;;;;17.27;11.73;;;;;;;;;;4969422;28;20042;-65
2024/01/07 01:36:40;;;;;;;17.98;11.52;;;;;;;;;;4969649;28;20057;-65
2024/01/07 01:39:06;;;;;;;16.60;11.38;;;;;;;;;;4969144;28;20043;-65
2024/01/07 01:41:32;;;;;;;15.65;11.50;;;;;;;;;;4971731;28;20050;-65
2024/01/07 01:43:59;;;;;;;20.65;12.15;;;;;;;;;;4988780;28;20451;-65
2024/01/07 01:46:25;;;;;;;16.80;11.68;;;;;;;;;;4980301;28;20134;-65
2024/01/07 01:48:51;;;;;;;17.88;11.75;;;;;;;;;;4969626;28;20506;-65
2024/01/07 01:51:17;;;;;;;17.60;11.02;;;;;;;;;;4969430;28;20078;-65
2024/01/07 01:53:45;;;;;;;16.40;11.63;;;;;;;;;;4970000;28;20135;-65
2024/01/07 01:56:11;;;;;;;18.02;11.73;;;;;;;;;;4968996;28;20045;-65
2024/01/07 01:58:37;;;;;;;19.80;11.43;;;;;;;;;;4961783;28;20100;-65
2024/01/07 02:01:04;;;;;;;18.65;11.45;;;;;;;;;;4987043;28;20429;-65
2024/01/07 02:03:30;;;;;;;18.45;12.32;;;;;;;;;;4971749;28;20047;-65
2024/01/07 02:05:57;;;;;;;15.23;10.80;;;;;;;;;;4968945;28;20047;-65
2024/01/07 02:08:23;;;;;;;17.23;10.98;;;;;;;;;;4969162;28;20043;-65
2024/01/07 02:10:49;;;;;;;18.65;11.00;;;;;;;;;;4969328;28;20074;-65
2024/01/07 02:13:15;;;;;;;16.80;11.93;;;;;;;;;;4969287;28;20053;-65
2024/01/07 02:15:41;;;;;;;18.67;11.10;;;;;;;;;;4986767;28;20500;-65
2024/01/07 02:18:07;;;;;;;17.15;11.05;;;;;;;;;;4982759;28;20113;-65
2024/01/07 02:20:33;;;;;;;18.92;10.85;;;;;;;;;;4973901;28;20034;-65
2024/01/07 02:22:59;;;;;;;17.23;11.38;;;;;;;;;;4976097;28;20047;-65
2024/01/07 02:25:25;;;;;;;17.38;11.75;;;;;;;;;;4968955;28;20130;-65
2024/01/07 02:27:51;;;;;;;18.10;10.48;;;;;;;;;;4987892;28;20041;-65
2024/01/07 02:30:17;;;;;;;16.73;10.60;;;;;;;;;;4976322;28;20038;-65
2024/01/07 02:32:43;;;;;;;15.50;10.48;;;;;;;;;;4988826;28;20113;-65
2024/01/07 02:35:10;;;;;;;17.80;11.05;;;;;;;;;;4974021;28;20043;-65
2024/01/07 02:37:36;;;;;;;16.50;10.40;;;;;;;;;;4969456;28;20042;-65
2024/01/07 02:40:02;;;;;;;16.17;10.13;;;;;;;;;;4987949;28;20042;-65
2024/01/07 02:42:28;;;;;;;14.88;9.95;;;;;;;;;;4980665;28;20093;-65
2024/01/07 02:44:53;;;;;;;16.30;10.30;;;;;;;;;;4968253;28;20081;-65
2024/01/07 02:47:19;;;;;;;16.27;10.38;;;;;;;;;;4968839;28;20039;-65
2024/01/07 02:49:45;;;;;;;17.20;10.52;;;;;;;;;;4970343;28;20467;-65
2024/01/07 02:52:11;;;;;;;13.98;9.63;;;;;;;;;;4988173;28;20054;-65
2024/01/07 02:54:37;;;;;;;13.85;9.02;;;;;;;;;;4978820;28;20304;-65
2024/01/07 02:57:03;;;;;;;12.63;8.32;;;;;;;;;;4968978;28;20078;-65
2024/01/07 02:59:29;;;;;;;15.10;9.02;;;;;;;;;;4967556;28;20038;-65
2024/01/07 03:01:56;;;;;;;13.00;9.27;;;;;;;;;;4967898;28;20051;-65
2024/01/07 03:04:22;;;;;;;12.77;8.80;;;;;;;;;;4968787;28;20413;-65
2024/01/07 03:06:48;;;;;;;13.75;8.65;;;;;;;;;;4968189;28;20039;-65
2024/01/07 03:09:14;;;;;;;13.85;8.73;;;;;;;;;;4968251;28;20045;-65
2024/01/07 03:11:41;;;;;;;14.02;9.07;;;;;;;;;;4975813;28;20035;-65
2024/01/07 03:14:07;;;;;;;12.80;8.35;;;;;;;;;;4983637;28;20039;-65
2024/01/07 03:16:33;;;;;;;15.43;8.77;;;;;;;;;;4967492;28;20188;-65
2024/01/07 03:18:59;;;;;;;12.85;8.55;;;;;;;;;;4967579;28;20054;-65
2024/01/07 03:21:25;;;;;;;10.90;7.93;;;;;;;;;;4968344;28;20078;-65
2024/01/07 03:23:51;;;;;;;11.90;7.82;;;;;;;;;;4967944;28;20034;-65
2024/01/07 03:26:18;;;;;;;13.77;8.35;;;;;;;;;;4969941;28;20106;-65
2024/01/07 03:28:44;;;;;;;11.40;7.95;;;;;;;;;;4968064;28;20035;-65
2024/01/07 03:31:12;;;;;;;12.27;7.63;;;;;;;;;;4980111;28;20134;-65
2024/01/07 03:33:38;;;;;;;14.82;7.63;;;;;;;;;;4987292;28;20045;-65
2024/01/07 03:36:12;;;;;;;15.35;8.05;;;;;;;;;;4970657;28;20430;-65
2024/01/07 03:38:39;;;;;;;11.20;7.40;;;;;;;;;;4971259;28;20659;-65
2024/01/07 03:41:05;;;;;;;12.20;8.13;;;;;;;;;;4971667;28;20050;-65
2024/01/07 03:43:31;;;;;;;10.35;7.88;;;;;;;;;;4986666;28;20373;-65
2024/01/07 03:45:57;;;;;;;12.35;7.75;;;;;;;;;;4989672;28;20034;-65
2024/01/07 03:48:23;;;;;;;12.38;7.82;;;;;;;;;;4971742;28;20043;-65
2024/01/07 03:50:49;;;;;;;11.50;7.47;;;;;;;;;;4980198;28;20041;-65
2024/01/07 03:53:15;;;;;;;12.40;7.60;;;;;;;;;;4991394;28;20389;-65
2024/01/07 03:55:41;;;;;;;13.68;7.85;;;;;;;;;;4975587;28;20078;-65
2024/01/07 03:58:07;;;;;;;10.27;7.05;;;;;;;;;;4974127;28;20524;-65
2024/01/07 04:00:33;;;;;;;11.32;7.70;;;;;;;;;;4990598;28;20109;-65
2024/01/07 04:03:00;;;;;;;12.57;7.68;;;;;;;;;;4981471;28;20410;-65
2024/01/07 04:05:25;;;;;;;10.55;6.82;;;;;;;;;;4971524;28;20130;-65
2024/01/07 04:07:51;;;;;;;12.82;7.00;;;;;;;;;;4971814;28;20163;-65
2024/01/07 04:10:18;;;;;;;12.38;7.43;;;;;;;;;;4970799;28;20502;-65
2024/01/07 04:12:44;;;;;;;11.60;7.30;;;;;;;;;;4987381;28;20046;-65
2024/01/07 04:15:11;;;;;;;11.10;6.70;;;;;;;;;;4980251;28;20058;-65
2024/01/07 04:17:37;;;;;;;11.70;6.97;;;;;;;;;;4970917;28;20047;-65
2024/01/07 04:20:03;;;;;;;10.13;6.55;;;;;;;;;;4971117;28;20047;-65
2024/01/07 04:22:29;;;;;;;12.07;7.07;;;;;;;;;;4975733;28;20097;-65
2024/01/07 04:24:55;;;;;;;10.10;6.82;;;;;;;;;;4990212;28;20042;-65
2024/01/07 04:27:21;;;;;;;8.77;6.68;;;;;;;;;;4972755;28;20473;-65
2024/01/07 04:29:47;;;;;;;11.18;7.05;;;;;;;;;;4971153;28;20039;-65
2024/01/07 04:32:13;;;;;;;11.23;6.95;;;;;;;;;;4972534;28;20046;-65
2024/01/07 04:34:39;;;;;;;10.15;6.15;;;;;;;;;;4984729;28;20134;-65
2024/01/07 04:37:05;;;;;;;9.13;6.05;;;;;;;;;;4970288;28;20679;-65
2024/01/07 04:39:31;;;;;;;10.20;5.45;;;;;;;;;;4970578;28;20070;-65
2024/01/07 04:41:57;;;;;;;10.35;6.55;;;;;;;;;;4970952;28;20042;-65
2024/01/07 04:44:23;;;;;;;12.40;5.80;;;;;;;;;;4970521;28;20070;-65
2024/01/07 04:46:49;;;;;;;8.45;5.53;;;;;;;;;;4969122;28;20187;-65
2024/01/07 04:49:15;;;;;;;11.85;5.97;;;;;;;;;;4971027;28;20035;-65
2024/01/07 04:51:41;;;;;;;9.65;5.97;;;;;;;;;;4970672;28;20528;-65
2024/01/07 04:54:07;;;;;;;9.85;5.40;;;;;;;;;;4971628;28;20081;-65
2024/01/07 04:56:33;;;;;;;8.57;5.32;;;;;;;;;;4989873;28;20034;-65
2024/01/07 04:58:59;;;;;;;10.18;6.32;;;;;;;;;;4981794;28;20037;-65
2024/01/07 05:01:25;;;;;;;8.23;5.63;;;;;;;;;;4970259;28;20058;-65
2024/01/07 05:03:52;;;;;;;7.90;5.57;;;;;;;;;;4970662;28;20047;-65
2024/01/07 05:06:18;;;;;;;9.05;5.00;;;;;;;;;;4970539;28;20043;-65
2024/01/07 05:08:44;;;;;;;9.80;5.80;;;;;;;;;;4952976;28;20304;-65
2024/01/07 05:11:11;;;;;;;9.23;5.80;;;;;;;;;;4975620;28;20042;-65
2024/01/07 05:13:37;;;;;;;7.90;5.68;;;;;;;;;;4971057;28;20400;-65
2024/01/07 05:16:03;;;;;;;8.63;5.13;;;;;;;;;;4971513;28;20109;-65
2024/01/07 05:18:29;;;;;;;7.88;4.68;;;;;;;;;;4969770;28;20572;-65
2024/01/07 05:20:55;;;;;;;7.88;5.25;;;;;;;;;;4969849;28;20051;-65
2024/01/07 05:23:21;;;;;;;8.52;5.65;;;;;;;;;;4980038;28;20054;-65
2024/01/07 05:25:47;;;;;;;11.68;4.80;;;;;;;;;;4984057;28;20194;-65
2024/01/07 05:28:13;;;;;;;6.85;4.45;;;;;;;;;;4969983;28;20050;-65
2024/01/07 05:30:40;;;;;;;7.13;4.68;;;;;;;;;;4969985;28;20240;-65
2024/01/07 05:33:06;;;;;;;7.35;4.47;;;;;;;;;;4970147;28;20295;-65
2024/01/07 05:35:32;;;;;;;6.70;4.05;;;;;;;;;;4969455;28;20042;-65
2024/01/07 05:37:58;;;;;;;7.35;4.43;;;;;;;;;;4969408;28;20375;-65
2024/01/07 05:40:24;;;;;;;8.32;4.97;;;;;;;;;;4988020;28;20046;-65
2024/01/07 05:42:50;;;;;;;5.53;4.13;;;;;;;;;;4983504;28;20042;-65
2024/01/07 05:45:16;;;;;;;10.73;4.80;;;;;;;;;;4969812;28;20039;-65
2024/01/07 05:47:42;;;;;;;8.57;4.43;;;;;;;;;;4976353;28;20452;-65
2024/01/07 05:50:08;;;;;;;6.20;4.40;;;;;;;;;;4969856;28;20098;-65
2024/01/07 05:52:34;;;;;;;5.63;4.13;;;;;;;;;;4969256;28;20042;-65
2024/01/07 05:55:00;;;;;;;8.27;4.00;;;;;;;;;;4975911;28;20088;-65
2024/01/07 05:57:26;;;;;;;6.07;4.00;;;;;;;;;;4988909;28;20057;-65
2024/01/07 05:59:52;;;;;;;8.50;3.80;;;;;;;;;;4974872;28;20046;-65
2024/01/07 06:02:18;;;;;;;6.03;3.30;;;;;;;;;;4969212;28;20080;-65
2024/01/07 06:04:44;;;;;;;6.05;3.33;;;;;;;;;;4969233;28;20109;-65
2024/01/07 06:07:10;;;;;;;8.43;4.00;;;;;;;;;;4969464;28;20049;-65
2024/01/07 06:09:36;;;;;;;6.32;3.00;;;;;;;;;;4968857;28;20117;-65
2024/01/07 06:12:02;;;;;;;4.68;3.20;;;;;;;;;;4979082;28;20262;-65
2024/01/07 06:14:28;;;;;;;4.35;2.72;;;;;;;;;;4987167;28;20042;-65
2024/01/07 06:16:54;;;;;;;5.35;2.90;;;;;;;;;;4969266;28;20109;-65
2024/01/07 06:19:21;;;;;;;4.88;2.72;;;;;;;;;;4968512;28;20126;-65
2024/01/07 06:21:47;;;;;;;5.93;2.97;;;;;;;;;;4969016;28;20174;-65
2024/01/07 06:24:13;;;;;;;4.88;3.05;;;;;;;;;;4984606;28;20092;-65
2024/01/07 06:26:40;;;;;;;4.47;2.80;;;;;;;;;;4975808;28;20093;-65
2024/01/07 06:29:06;;;;;;;5.15;2.90;;;;;;;;;;4968675;28;20093;-65
2024/01/07 06:31:32;;;;;;;4.03;2.83;;;;;;;;;;4969004;28;20074;-65
2024/01/07 06:33:58;;;;;;;4.05;2.75;;;;;;;;;;4969514;28;20457;-65
2024/01/07 06:36:27;;;;;;;3.38;2.40;;;;;;;;;;4968948;28;20244;-65
2024/01/07 06:38:53;;;;;;;4.10;2.50;;;;;;;;;;4968218;28;20042;-65
2024/01/07 06:41:19;;;;;;;3.47;2.55;;;;;;;;;;4968942;28;20567;-65
2024/01/07 06:43:45;;;;;;;3.67;2.60;;;;;;;;;;4969030;28;20057;-65
2024/01/07 06:46:11;;;;;;;4.07;2.50;;;;;;;;;;4968068;28;20047;-65
2024/01/07 06:48:37;;;;;;;4.97;2.95;;;;;;;;;;4968665;28;20074;-65
2024/01/07 06:51:03;;;;;;;3.78;2.42;;;;;;;;;;4969239;28;20054;-65
2024/01/07 06:53:29;;;;;;;4.65;2.30;;;;;;;;;;4968626;28;20047;-65
2024/01/07 06:55:55;;;;;;;6.07;2.78;;;;;;;;;;4980687;28;20050;-65
2024/01/07 06:58:21;;;;;;;3.20;2.13;;;;;;;;;;4987399;28;20046;-65
2024/01/07 07:00:47;;;;;;;3.17;2.13;;;;;;;;;;4968567;28;20063;-65
2024/01/07 07:03:13;;;;;;;6.43;2.45;;;;;;;;;;4968293;28;20078;-65
2024/01/07 07:05:39;;;;;;;9.05;2.38;;;;;;;;;;4967943;28;20408;-65
2024/01/07 07:08:05;;;;;;;3.78;2.33;;;;;;;;;;4968163;28;20050;-65
2024/01/07 07:10:31;;;;;;;3.92;2.33;;;;;;;;;;4967215;28;20584;-65
2024/01/07 07:12:57;;;;;;;5.63;2.50;;;;;;;;;;4968221;28;20493;-65
2024/01/07 07:15:26;;;;;;;4.32;2.33;;;;;;;;;;4968291;28;20066;-65
2024/01/07 07:17:52;;;;;;;5.95;2.20;;;;;;;;;;4968026;28;20409;-65
2024/01/07 07:20:19;;;;;;;2.90;2.25;;;;;;;;;;4970845;28;20288;-65
2024/01/07 07:22:45;;;;;;;5.47;2.65;;;;;;;;;;4985687;28;20485;-65
2024/01/07 07:25:11;;;;;;;4.03;2.20;;;;;;;;;;4968376;28;20039;-65
2024/01/07 07:27:37;;;;;;;5.10;2.25;;;;;;;;;;4967642;28;20489;-65
2024/01/07 07:30:04;;;;;;;5.40;2.13;;;;;;;;;;4967460;28;20569;-65
2024/01/07 07:32:30;;;;;;;4.75;2.22;;;;;;;;;;4968165;28;20126;-65
2024/01/07 07:34:56;;;;;;;4.47;2.13;;;;;;;;;;4953803;28;20121;-65
2024/01/07 07:37:22;;;;;;;3.25;2.08;;;;;;;;;;4987401;28;20048;-65
2024/01/07 07:39:49;;;;;;;2.80;2.05;;;;;;;;;;4976789;28;20126;-65
2024/01/07 07:42:16;;;;;;;5.18;2.08;;;;;;;;;;4968490;28;20050;-65
2024/01/07 07:44:42;;;;;;;5.32;2.38;;;;;;;;;;4968054;28;20070;-65
2024/01/07 07:47:08;;;;;;;4.53;2.30;;;;;;;;;;4967263;28;20547;-65
2024/01/07 07:49:35;;;;;;;4.50;2.30;;;;;;;;;;4967955;28;20039;-65
2024/01/07 07:52:01;;;;;;;5.65;2.13;;;;;;;;;;4968252;28;20046;-65
2024/01/07 07:54:27;;;;;;;5.38;2.55;;;;;;;;;;4967766;28;20456;-65
2024/01/07 07:56:53;;;;;;;6.30;2.30;;;;;;;;;;4967849;28;20112;-65
2024/01/07 07:59:19;;;;;;;2.55;1.80;;;;;;;;;;4967049;28;20129;-65
2024/01/07 08:01:46;;;;;;;5.43;2.17;;;;;;;;;;4967908;28;20069;-65
2024/01/07 08:04:12;;;;;;;4.18;2.25;;;;;;;;;;4967709;28;20094;-65
2024/01/07 08:06:38;;;;;;;3.70;1.80;;;;;;;;;;4967021;28;20079;-65
2024/01/07 08:09:04;;;;;;;4.25;2.10;;;;;;;;;;4968255;28;20263;-65
2024/01/07 08:11:30;;;;;;;2.30;1.85;;;;;;;;;;4967802;28;20595;-65
2024/01/07 08:13:57;;;;;;;3.42;1.65;;;;;;;;;;4967818;28;20141;-65
2024/01/07 08:16:23;;;;;;;3.25;1.90;;;;;;;;;;4967903;28;20054;-65
2024/01/07 08:18:49;;;;;;;5.97;2.53;;;;;;;;;;4967240;28;20489;-65
2024/01/07 08:21:15;;;;;;;3.28;1.80;;;;;;;;;;4970855;28;20050;-65
2024/01/07 08:23:42;;;;;;;2.63;1.40;;;;;;;;;;4983033;28;20038;-65
2024/01/07 08:26:08;;;;;;;2.20;1.90;;;;;;;;;;4972716;28;20053;-65
2024/01/07 08:28:34;;;;;;;2.95;1.88;;;;;;;;;;4970866;28;20041;-65
2024/01/07 08:31:00;;;;;;;4.18;1.98;;;;;;;;;;4972465;28;20062;-65
2024/01/07 08:33:26;;;;;;;4.95;1.85;;;;;;;;;;4990838;28;20532;-65
2024/01/07 08:35:52;;;;;;;4.90;2.03;;;;;;;;;;4981733;28;20129;-65
2024/01/07 08:38:18;;;;;;;3.92;2.00;;;;;;;;;;4970901;28;20122;-65
2024/01/07 08:40:44;;;;;;;3.88;2.20;;;;;;;;;;4970827;28;20038;-65
2024/01/07 08:43:10;;;;;;;4.25;2.13;;;;;;;;;;4972794;28;20096;-65
2024/01/07 08:45:36;;;;;;;4.20;1.95;;;;;;;;;;4970919;28;20042;-65
2024/01/07 08:48:02;;;;;;;3.42;1.85;;;;;;;;;;4970488;28;20433;-65
2024/01/07 08:50:29;;;;;;;3.55;1.60;;;;;;;;;;4969049;28;20053;-65
2024/01/07 08:52:55;;;;;;;4.10;1.80;;;;;;;;;;4971364;28;20069;-65
2024/01/07 08:55:21;;;;;;;3.92;1.90;;;;;;;;;;4970317;28;20043;-65
2024/01/07 08:57:48;;;;;;;3.97;2.05;;;;;;;;;;4970660;28;20065;-65
2024/01/07 09:00:15;;;;;;;4.63;1.70;;;;;;;;;;4970234;28;20135;-65
2024/01/07 09:02:41;;;;;;;3.30;1.88;;;;;;;;;;4970888;28;20058;-65
2024/01/07 09:05:07;;;;;;;3.00;2.03;;;;;;;;;;4970367;28;20038;-65
2024/01/07 09:07:33;;;;;;;2.92;1.80;;;;;;;;;;4975089;28;20065;-65
2024/01/07 09:10:00;;;;;;;3.17;1.80;;;;;;;;;;4990018;28;20038;-65
2024/01/07 09:12:27;;;;;;;4.25;1.92;;;;;;;;;;4988095;28;20397;-65
2024/01/07 09:14:53;;;;;;;2.85;1.60;;;;;;;;;;4989919;28;20041;-65
2024/01/07 09:17:19;;;;;;;2.83;1.92;;;;;;;;;;4970307;28;20260;-65
2024/01/07 09:19:45;;;;;;;3.35;1.85;;;;;;;;;;4977051;28;20160;-65
2024/01/07 09:22:11;;;;;;;2.80;1.83;;;;;;;;;;4971057;28;20083;-65
2024/01/07 09:24:37;;;;;;;2.47;1.70;;;;;;;;;;4983414;28;20038;-65
2024/01/07 09:27:03;;;;;;;4.57;1.70;;;;;;;;;;4973981;28;20038;-65
2024/01/07 09:29:29;;;;;;;2.97;1.80;;;;;;;;;;4969650;28;20035;-65
2024/01/07 09:31:56;;;;;;;2.63;1.77;;;;;;;;;;4977696;28;20547;-65
2024/01/07 09:34:22;;;;;;;5.68;2.08;;;;;;;;;;4988674;28;20251;-65
2024/01/07 09:36:48;;;;;;;5.93;2.00;;;;;;;;;;4974585;28;20034;-65
2024/01/07 09:39:14;;;;;;;6.40;2.28;;;;;;;;;;4954062;28;20109;-65
2024/01/07 09:41:40;;;;;;;4.18;1.80;;;;;;;;;;4989073;28;20548;-65
2024/01/07 09:44:07;;;;;;;2.30;1.77;;;;;;;;;;4980370;28;20078;-65
2024/01/07 09:46:35;;;;;;;3.05;2.33;;;;;;;;;;4969856;28;20506;-65
2024/01/07 09:49:01;;;;;;;3.78;2.00;;;;;;;;;;4970213;28;20534;-65
2024/01/07 09:51:28;;;;;;;4.65;1.70;;;;;;;;;;4972611;28;20041;-65
2024/01/07 09:53:57;;;;;;;2.97;1.90;;;;;;;;;;4989488;28;20508;-65
2024/01/07 09:56:26;;;;;;;2.90;1.70;;;;;;;;;;4977846;28;20084;-66
2024/01/07 09:58:53;;;;;;;4.40;1.42;;;;;;;;;;4969883;28;20054;-66
2024/01/07 10:01:19;;;;;;;3.20;1.48;;;;;;;;;;4968872;28;20062;-66
2024/01/07 10:03:45;;;;;;;4.53;1.80;;;;;;;;;;4974668;28;20046;-66
2024/01/07 10:06:11;;;;;;;2.00;1.50;;;;;;;;;;4988409;28;20129;-66
2024/01/07 10:08:37;;;;;;;4.00;1.60;;;;;;;;;;4976399;28;20034;-66
2024/01/07 10:11:04;;;;;;;3.70;1.55;;;;;;;;;;4971210;28;20074;-66
2024/01/07 10:13:31;;;;;;;3.40;1.48;;;;;;;;;;4952643;28;20049;-66
2024/01/07 10:15:57;;;;;;;3.28;1.40;;;;;;;;;;4968759;28;20158;-66
2024/01/07 10:18:23;;;;;;;4.30;1.50;;;;;;;;;;4969873;28;20063;-66
2024/01/07 10:20:49;;;;;;;2.25;1.42;;;;;;;;;;4968719;28;20105;-66
2024/01/07 10:23:19;;;;;;;3.30;1.83;;;;;;;;;;4969343;28;20051;-66
2024/01/07 10:25:46;;;;;;;5.78;1.83;;;;;;;;;;4983397;28;20042;-66
2024/01/07 10:28:14;;;;;;;1.88;1.52;;;;;;;;;;4969491;28;20049;-66
2024/01/07 10:30:40;;;;;;;2.30;1.25;;;;;;;;;;4969636;28;20530;-66
2024/01/07 10:33:09;;;;;;;3.42;1.48;;;;;;;;;;4968494;28;20424;-66
2024/01/07 10:35:36;;;;;;;2.03;1.60;;;;;;;;;;4970408;28;20424;-66
2024/01/07 10:38:02;;;;;;;3.13;1.77;;;;;;;;;;4971356;28;20042;-66
2024/01/07 10:40:34;;;;;;;3.33;1.65;;;;;;;;;;4977932;28;20424;-66
2024/01/07 10:43:00;;;;;;;1.50;1.35;;;;;;;;;;4968560;28;20054;-66
2024/01/07 10:45:26;;;;;;;2.33;1.50;;;;;;;;;;4968773;28;20330;-66
2024/01/07 10:47:54;;;;;;;3.15;1.73;;;;;;;;;;4968537;28;20587;-66
2024/01/07 10:50:21;;;;;;;2.50;1.35;;;;;;;;;;4968772;28;20047;-66
2024/01/07 10:52:51;;;;;;;2.15;1.30;;;;;;;;;;4968438;28;20034;-66
2024/01/07 10:55:18;;;;;;;4.28;1.80;;;;;;;;;;4967841;28;20043;-66
2024/01/07 10:57:49;;;;;;;1.92;1.60;;;;;;;;;;4968758;28;20378;-66
2024/01/07 11:00:18;;;;;;;1.65;1.33;;;;;;;;;;4968217;28;20063;-66
2024/01/07 11:02:50;;;;;;;3.47;1.80;;;;;;;;;;4968220;28;20547;-66
2024/01/07 11:05:21;;;;;;;2.15;1.60;;;;;;;;;;4968609;28;20047;-66
2024/01/07 11:07:54;;;;;;;5.07;1.80;;;;;;;;;;4968450;28;20222;-66
2024/01/07 11:10:22;;;;;;;2.78;1.88;;;;;;;;;;4968068;28;20042;-66
2024/01/07 11:12:55;;;;;;;3.38;1.88;;;;;;;;;;4979489;28;20039;-66
2024/01/07 11:15:54;;;;;;;5.13;1.63;;;;;;;;;;4987281;28;20042;-66
2024/01/07 11:18:21;;;;;;;3.13;1.70;;;;;;;;;;4906961;29;20134;-66
2024/01/07 11:20:47;;;;;;;2.97;1.83;;;;;;;;;;4964563;28;20045;-66
2024/01/07 11:23:33;;;;;;;3.25;1.90;;;;;;;;;;4968211;28;20047;-66
2024/01/07 11:26:02;;;;;;;2.90;1.70;;;;;;;;;;4970240;28;20057;-66
2024/01/07 11:28:44;;;;;;;2.50;1.40;;;;;;;;;;4967884;28;20502;-66
2024/01/07 11:31:10;;;;;;;3.03;1.53;;;;;;;;;;4968180;28;20041;-66
2024/01/07 11:33:39;;;;;;;2.35;1.50;;;;;;;;;;4985672;28;20281;-66
2024/01/07 11:36:06;;;;;;;2.10;1.75;;;;;;;;;;4981206;28;20461;-66
2024/01/07 11:38:32;;;;;;;3.28;2.30;;;;;;;;;;4950832;28;20533;-66
2024/01/07 11:40:59;;;;;;;4.38;1.90;;;;;;;;;;4967841;28;20449;-66
2024/01/07 11:43:25;;;;;;;3.35;1.90;;;;;;;;;;4967836;28;20137;-66
2024/01/07 11:45:51;;;;;;;3.97;1.45;;;;;;;;;;4967841;28;20046;-66
2024/01/07 11:48:18;;;;;;;3.35;1.63;;;;;;;;;;4967624;28;20134;-66
2024/01/07 11:50:44;;;;;;;3.40;1.55;;;;;;;;;;4967782;28;20050;-66
2024/01/07 11:53:12;;;;;;;1.55;1.38;;;;;;;;;;4967819;28;20221;-66
2024/01/07 11:55:38;;;;;;;2.78;1.50;;;;;;;;;;4967678;28;20403;-66
2024/01/07 11:58:04;;;;;;;4.72;1.73;;;;;;;;;;4971749;28;20039;-66
2024/01/07 12:00:34;;;;;;;2.55;1.70;;;;;;;;;;4954389;28;20079;-66
2024/01/07 12:03:04;;;;;;;4.35;2.40;;;;;;;;;;4971619;28;20068;-66
2024/01/07 12:05:30;;;;;;;5.05;1.90;;;;;;;;;;4971637;28;20049;-66
2024/01/07 12:07:56;;;;;;;2.35;1.67;;;;;;;;;;4971311;28;20039;-66
2024/01/07 12:10:25;;;;;;;3.70;1.83;;;;;;;;;;4971770;28;20041;-66
2024/01/07 12:12:52;;;;;;;3.90;2.20;;;;;;;;;;4981274;28;20512;-66
2024/01/07 12:15:18;;;;;;;4.43;1.75;;;;;;;;;;4990853;28;20113;-66
2024/01/07 12:17:56;;;;;;;2.78;1.73;;;;;;;;;;4973436;28;20101;-66
2024/01/07 12:20:22;;;;;;;2.92;1.90;;;;;;;;;;4971239;28;20097;-66
2024/01/07 12:22:48;;;;;;;4.80;2.33;;;;;;;;;;4970906;28;20397;-66
2024/01/07 12:25:14;;;;;;;3.25;2.20;;;;;;;;;;4971402;28;20129;-66
2024/01/07 12:27:41;;;;;;;4.07;2.20;;;;;;;;;;4973404;28;20105;-66
2024/01/07 12:30:07;;;;;;;4.38;2.22;;;;;;;;;;4973047;28;20560;-66
2024/01/07 12:32:33;;;;;;;2.92;2.10;;;;;;;;;;4971114;28;20035;-66
2024/01/07 12:35:00;;;;;;;3.75;2.08;;;;;;;;;;4970630;28;20038;-66
2024/01/07 12:37:29;;;;;;;4.45;2.60;;;;;;;;;;4985497;28;20078;-66
2024/01/07 12:39:55;;;;;;;3.72;2.15;;;;;;;;;;4988360;28;20050;-66
2024/01/07 12:42:23;;;;;;;3.45;2.20;;;;;;;;;;4970926;28;20047;-66
2024/01/07 12:44:49;;;;;;;5.03;2.50;;;;;;;;;;4970518;28;20039;-66
2024/01/07 12:47:15;;;;;;;3.92;2.45;;;;;;;;;;4970995;28;20515;-66
2024/01/07 12:49:41;;;;;;;4.60;2.50;;;;;;;;;;4970739;28;20045;-66
2024/01/07 12:52:07;;;;;;;4.35;2.60;;;;;;;;;;4970757;28;20043;-66
2024/01/07 12:54:33;;;;;;;7.47;3.20;;;;;;;;;;4953428;28;20050;-66
2024/01/07 12:57:00;;;;;;;3.80;2.67;;;;;;;;;;4970542;28;20134;-66
2024/01/07 12:59:26;;;;;;;5.43;2.85;;;;;;;;;;4970960;28;20085;-66
2024/01/07 13:01:52;;;;;;;6.38;3.05;;;;;;;;;;4987481;28;20061;-66
2024/01/07 13:04:19;;;;;;;5.10;3.22;;;;;;;;;;4985161;28;20042;-66
2024/01/07 13:06:45;;;;;;;5.95;3.80;;;;;;;;;;4970772;28;20081;-66
2024/01/07 13:09:11;;;;;;;6.55;3.15;;;;;;;;;;4969348;28;20105;-66
2024/01/07 13:11:37;;;;;;;7.25;3.70;;;;;;;;;;4970941;28;20035;-66
2024/01/07 13:14:03;;;;;;;5.88;3.30;;;;;;;;;;4987918;28;20045;-66
2024/01/07 13:16:29;;;;;;;6.60;3.58;;;;;;;;;;4984233;28;20513;-66
2024/01/07 13:18:56;;;;;;;6.70;3.97;;;;;;;;;;4970165;28;20129;-66
2024/01/07 13:21:22;;;;;;;7.55;3.97;;;;;;;;;;4981757;28;20057;-66
2024/01/07 13:23:48;;;;;;;6.38;3.85;;;;;;;;;;4989149;28;20047;-66
2024/01/07 13:26:17;;;;;;;6.90;3.72;;;;;;;;;;4970160;28;20497;-66
2024/01/07 13:28:43;;;;;;;6.57;3.78;;;;;;;;;;4969706;28;20038;-66
2024/01/07 13:31:11;;;;;;;6.40;4.18;;;;;;;;;;4970623;28;20042;-66
2024/01/07 13:33:38;;;;;;;7.05;3.78;;;;;;;;;;4969585;28;20393;-66
2024/01/07 13:36:08;;;;;;;7.78;3.40;;;;;;;;;;4970223;28;20125;-66
2024/01/07 13:38:34;;;;;;;6.72;3.40;;;;;;;;;;4970053;28;20636;-66
2024/01/07 13:41:00;;;;;;;8.07;3.50;;;;;;;;;;4969907;28;20416;-66
2024/01/07 13:43:29;;;;;;;5.10;3.45;;;;;;;;;;4970003;28;20047;-66
2024/01/07 13:45:55;;;;;;;5.50;3.10;;;;;;;;;;4969240;28;20592;-66
2024/01/07 13:48:21;;;;;;;6.25;3.42;;;;;;;;;;4968450;28;20043;-66
2024/01/07 13:50:49;;;;;;;6.55;3.72;;;;;;;;;;4969879;28;20073;-66
2024/01/07 13:53:15;;;;;;;5.78;3.55;;;;;;;;;;4969663;28;20439;-66
2024/01/07 13:55:41;;;;;;;6.80;3.75;;;;;;;;;;4969631;28;20043;-66
2024/01/07 13:58:07;;;;;;;10.18;3.75;;;;;;;;;;4969356;28;20102;-66
2024/01/07 14:00:33;;;;;;;7.20;4.00;;;;;;;;;;4969368;28;20066;-66
2024/01/07 14:02:59;;;;;;;8.73;4.95;;;;;;;;;;4969958;28;20062;-66
2024/01/07 14:05:25;;;;;;;7.32;3.63;;;;;;;;;;4968860;28;20071;-66
2024/01/07 14:07:51;;;;;;;8.85;4.20;;;;;;;;;;4970177;28;20046;-66
2024/01/07 14:10:19;;;;;;;5.47;3.65;;;;;;;;;;4969027;28;20046;-66
2024/01/07 14:12:45;;;;;;;6.88;4.10;;;;;;;;;;4978904;28;20039;-66
2024/01/07 14:15:11;;;;;;;6.82;3.70;;;;;;;;;;4968746;28;20570;-66
2024/01/07 14:17:37;;;;;;;5.88;4.05;;;;;;;;;;4969441;28;20418;-66
2024/01/07 14:20:03;;;;;;;7.18;4.07;;;;;;;;;;4969121;28;20133;-66
2024/01/07 14:22:29;;;;;;;5.55;3.67;;;;;;;;;;4969002;28;20045;-66
2024/01/07 14:24:55;;;;;;;6.53;3.92;;;;;;;;;;4968356;28;20532;-66
2024/01/07 14:27:21;;;;;;;8.50;3.88;;;;;;;;;;4971294;28;20089;-66
2024/01/07 14:29:47;;;;;;;6.65;3.80;;;;;;;;;;4968828;28;20146;-66
2024/01/07 14:32:14;;;;;;;8.07;4.00;;;;;;;;;;4971042;28;20104;-66